createdAt,value
2023-01-19T00:02:13.664Z,3.45
2023-01-19T00:05:04.199Z,3.52
2023-01-19T00:07:53.534Z,3.54
2023-01-19T00:10:46.647Z,3.42
2023-01-19T00:13:35.626Z,3.42
2023-01-19T00:16:24.932Z,3.49
2023-01-19T00:19:20.579Z,3.48
2023-01-19T00:22:09.918Z,3.47
2023-01-19T00:24:59.090Z,3.50
2023-01-19T00:27:49.997Z,3.47
2023-01-19T00:30:39.666Z,3.45
2023-01-19T00:33:29.023Z,3.41
2023-01-19T00:36:18.336Z,3.47
2023-01-19T00:39:07.591Z,3.44
2023-01-19T00:42:14.485Z,3.54
2023-01-19T00:45:06.707Z,3.45
2023-01-19T00:47:57.396Z,3.48
2023-01-19T00:50:46.684Z,3.37
2023-01-19T00:53:35.921Z,3.38
2023-01-19T00:56:25.145Z,3.48
2023-01-19T00:59:14.686Z,3.35
2023-01-19T01:02:05.529Z,3.44
2023-01-19T01:04:56.852Z,3.28
2023-01-19T01:07:47.130Z,3.26
2023-01-19T01:10:36.317Z,3.39
2023-01-19T01:13:27.753Z,3.38
2023-01-19T01:16:18.059Z,3.40
2023-01-19T01:19:08.830Z,3.45
2023-01-19T01:21:58.156Z,3.48
2023-01-19T01:24:47.631Z,3.47
2023-01-19T01:27:36.912Z,3.46
2023-01-19T01:30:26.140Z,3.48
2023-01-19T01:33:15.348Z,3.53
2023-01-19T01:36:29.183Z,3.56
2023-01-19T01:39:18.381Z,3.61
2023-01-19T01:42:18.900Z,3.59
2023-01-19T01:45:31.895Z,3.62
2023-01-19T01:48:27.931Z,3.56
2023-01-19T01:51:27.370Z,3.64
2023-01-19T01:54:22.893Z,3.62
2023-01-19T01:57:13.365Z,3.59
2023-01-19T02:00:03.397Z,3.65
2023-01-19T02:02:55.282Z,3.62
2023-01-19T02:05:46.153Z,3.60
2023-01-19T02:08:58.166Z,3.67
2023-01-19T02:12:06.877Z,3.68
2023-01-19T02:14:56.114Z,3.69
2023-01-19T02:17:52.387Z,3.67
2023-01-19T02:20:46.564Z,3.64
2023-01-19T02:23:42.611Z,3.69
2023-01-19T02:26:36.544Z,3.69
2023-01-19T02:29:28.253Z,3.69
2023-01-19T02:32:17.563Z,3.71
2023-01-19T02:35:08.027Z,3.61
2023-01-19T02:37:58.735Z,3.74
2023-01-19T02:40:50.427Z,3.67
2023-01-19T02:43:40.650Z,3.69
2023-01-19T02:46:30.014Z,3.71
2023-01-19T02:49:19.563Z,3.72
2023-01-19T02:52:16.021Z,3.65
2023-01-19T02:55:16.587Z,3.70
2023-01-19T02:58:12.991Z,3.68
2023-01-19T03:01:13.762Z,3.71
2023-01-19T03:04:16.451Z,3.64
2023-01-19T03:07:13.084Z,3.68
2023-01-19T03:10:09.596Z,3.63
2023-01-19T03:13:08.062Z,3.63
2023-01-19T03:16:06.204Z,3.67
2023-01-19T03:19:02.910Z,3.60
2023-01-19T03:21:57.512Z,3.64
2023-01-19T03:24:48.809Z,3.69
2023-01-19T03:27:42.179Z,3.69
2023-01-19T03:30:36.474Z,3.73
2023-01-19T03:33:32.988Z,3.61
2023-01-19T03:36:28.440Z,3.64
2023-01-19T03:39:25.014Z,3.61
2023-01-19T03:42:17.603Z,3.68
2023-01-19T03:45:08.790Z,3.70
2023-01-19T03:47:59.970Z,3.67
2023-01-19T03:50:51.605Z,3.69
2023-01-19T03:53:40.979Z,3.69
2023-01-19T03:56:30.387Z,3.70
2023-01-19T03:59:20.095Z,3.64
2023-01-19T04:02:09.949Z,3.62
2023-01-19T04:04:59.579Z,3.65
2023-01-19T04:07:51.998Z,3.65
2023-01-19T04:10:41.636Z,3.65
2023-01-19T04:13:31.045Z,3.62
2023-01-19T04:16:21.437Z,3.57
2023-01-19T04:19:10.668Z,3.62
2023-01-19T04:21:59.912Z,3.61
2023-01-19T04:24:50.911Z,3.59
2023-01-19T04:27:40.240Z,3.59
2023-01-19T04:30:29.686Z,3.58
2023-01-19T04:33:19.063Z,3.57
2023-01-19T04:36:09.113Z,3.58
2023-01-19T04:38:58.341Z,3.51
2023-01-19T04:41:48.950Z,3.42
2023-01-19T04:44:38.208Z,3.52
2023-01-19T04:47:27.564Z,3.48
2023-01-19T04:50:17.731Z,3.50
2023-01-19T04:53:07.306Z,3.48
2023-01-19T04:55:57.100Z,3.46
2023-01-19T04:58:47.679Z,3.34
2023-01-19T05:01:37.123Z,3.36
2023-01-19T05:04:26.799Z,3.30
2023-01-19T05:07:16.016Z,3.26
2023-01-19T05:10:06.383Z,3.18
2023-01-19T05:12:55.849Z,3.13
2023-01-19T05:15:46.774Z,3.08
2023-01-19T05:18:37.241Z,2.99
2023-01-19T05:21:26.509Z,3.02
2023-01-19T05:24:15.794Z,2.99
2023-01-19T05:27:05.172Z,2.98
2023-01-19T05:29:54.621Z,2.95
2023-01-19T05:32:45.291Z,2.92
2023-01-19T05:35:36.425Z,2.91
2023-01-19T05:38:34.556Z,2.86
2023-01-19T05:41:24.353Z,2.81
2023-01-19T05:44:14.196Z,2.72
2023-01-19T05:47:03.485Z,2.80
2023-01-19T05:49:54.123Z,2.77
2023-01-19T05:52:43.510Z,2.74
2023-01-19T05:55:33.404Z,2.73
2023-01-19T05:58:22.659Z,2.70
2023-01-19T06:01:12.357Z,2.67
2023-01-19T06:04:01.659Z,2.64
2023-01-19T06:06:52.997Z,2.55
2023-01-19T06:09:42.291Z,2.52
2023-01-19T06:12:32.684Z,2.48
2023-01-19T06:15:22.908Z,2.43
2023-01-19T06:18:12.561Z,2.39
2023-01-19T06:21:06.165Z,2.37
2023-01-19T06:23:56.867Z,2.33
2023-01-19T06:26:46.165Z,2.35
2023-01-19T06:29:35.398Z,2.37
2023-01-19T06:32:25.118Z,2.39
2023-01-19T06:35:14.391Z,2.41
2023-01-19T06:38:03.645Z,2.45
2023-01-19T06:40:59.678Z,2.46
2023-01-19T06:43:48.887Z,2.56
2023-01-19T06:46:38.126Z,2.61
2023-01-19T06:49:27.440Z,2.66
2023-01-19T06:52:18.427Z,2.66
2023-01-19T06:55:10.825Z,2.66
2023-01-19T06:58:01.587Z,2.72
2023-01-19T07:00:52.008Z,2.79
2023-01-19T07:03:41.395Z,2.85
2023-01-19T07:06:30.642Z,2.93
2023-01-19T07:09:20.555Z,2.97
2023-01-19T07:12:09.782Z,3.04
2023-01-19T07:15:00.981Z,3.09
2023-01-19T07:17:50.582Z,3.10
2023-01-19T07:20:40.588Z,3.13
2023-01-19T07:23:30.880Z,3.14
2023-01-19T07:26:21.577Z,3.19
2023-01-19T07:29:11.316Z,3.25
2023-01-19T07:32:02.146Z,3.31
2023-01-19T07:34:51.595Z,3.32
2023-01-19T07:37:40.857Z,3.37
2023-01-19T07:40:30.160Z,3.40
2023-01-19T07:43:19.532Z,3.40
2023-01-19T07:46:09.299Z,3.43
2023-01-19T07:48:59.962Z,3.49
2023-01-19T07:51:49.287Z,3.58
2023-01-19T07:54:38.550Z,3.61
2023-01-19T07:57:27.771Z,3.62
2023-01-19T08:00:19.756Z,3.67
2023-01-19T08:03:09.310Z,3.70
2023-01-19T08:06:00.515Z,3.75
2023-01-19T08:08:50.454Z,3.75
2023-01-19T08:11:39.823Z,3.72
2023-01-19T08:14:29.091Z,3.83
2023-01-19T08:17:18.570Z,3.78
2023-01-19T08:20:09.880Z,3.79
2023-01-19T08:23:01.581Z,3.78
2023-01-19T08:25:51.140Z,3.80
2023-01-19T08:28:40.377Z,3.82
2023-01-19T08:31:30.335Z,3.83
2023-01-19T08:34:19.808Z,3.81
2023-01-19T08:37:09.214Z,3.79
2023-01-19T08:39:59.899Z,3.76
2023-01-19T08:42:49.120Z,3.78
2023-01-19T08:45:46.728Z,3.76
2023-01-19T08:48:35.943Z,3.82
2023-01-19T08:51:25.149Z,3.85
2023-01-19T08:54:16.677Z,3.86
2023-01-19T08:57:08.267Z,3.90
2023-01-19T08:59:57.587Z,3.86
2023-01-19T09:02:47.015Z,4.00
2023-01-19T09:05:39.048Z,4.00
2023-01-19T09:08:28.739Z,4.07
2023-01-19T09:11:18.837Z,4.05
2023-01-19T09:14:09.693Z,4.06
2023-01-19T09:16:59.311Z,4.14
2023-01-19T09:19:48.579Z,4.14
2023-01-19T09:22:39.707Z,4.17
2023-01-19T09:25:29.150Z,4.20
2023-01-19T09:28:19.247Z,4.23
2023-01-19T09:31:10.726Z,4.20
2023-01-19T09:34:00.109Z,4.29
2023-01-19T09:36:49.258Z,4.34
2023-01-19T09:39:39.121Z,4.32
2023-01-19T09:42:36.321Z,4.30
2023-01-19T09:45:36.197Z,4.19
2023-01-19T09:48:40.430Z,4.11
2023-01-19T09:51:34.426Z,4.07
2023-01-19T09:54:30.566Z,4.04
2023-01-19T09:57:19.852Z,4.02
2023-01-19T10:00:17.715Z,3.98
2023-01-19T10:03:16.825Z,3.96
2023-01-19T10:06:10.817Z,3.91
2023-01-19T10:09:08.446Z,3.86
2023-01-19T10:12:04.081Z,3.95
2023-01-19T10:15:01.857Z,3.97
2023-01-19T10:18:05.456Z,3.98
2023-01-19T10:21:01.187Z,4.02
2023-01-19T10:23:56.720Z,3.97
2023-01-19T10:26:49.216Z,4.10
2023-01-19T10:29:39.483Z,4.00
2023-01-19T10:32:32.830Z,4.06
2023-01-19T10:35:25.502Z,4.12
2023-01-19T10:38:22.223Z,4.16
2023-01-19T10:41:22.314Z,4.18
2023-01-19T10:44:12.974Z,4.20
2023-01-19T10:47:03.328Z,4.14
2023-01-19T10:49:52.634Z,4.32
2023-01-19T10:52:44.794Z,4.28
2023-01-19T10:55:38.161Z,4.30
2023-01-19T10:58:32.376Z,4.51
2023-01-19T11:01:24.541Z,4.61
2023-01-19T11:04:28.846Z,4.80
2023-01-19T11:07:22.789Z,4.99
2023-01-19T11:10:25.208Z,5.18
2023-01-19T11:13:16.012Z,5.33
2023-01-19T11:16:17.343Z,5.48
2023-01-19T11:19:07.711Z,5.57
2023-01-19T11:22:16.758Z,5.59
2023-01-19T11:25:08.030Z,5.68
2023-01-19T11:27:57.347Z,5.65
2023-01-19T11:30:58.071Z,5.53
2023-01-19T11:33:54.547Z,5.64
2023-01-19T11:36:56.032Z,5.53
2023-01-19T11:39:50.064Z,5.47
2023-01-19T11:42:40.360Z,5.49
2023-01-19T11:45:29.785Z,5.55
2023-01-19T11:48:28.713Z,5.61
2023-01-19T11:51:23.256Z,6.01
2023-01-19T11:54:24.922Z,6.98
2023-01-19T11:57:17.706Z,8.19
2023-01-19T12:00:31.271Z,9.28
2023-01-19T12:03:26.625Z,10.12
2023-01-19T12:06:22.744Z,10.83
2023-01-19T12:09:20.679Z,10.95
2023-01-19T12:12:18.601Z,11.18
2023-01-19T12:15:22.540Z,10.86
2023-01-19T12:18:19.562Z,10.33
2023-01-19T12:21:08.881Z,9.72
2023-01-19T12:24:16.130Z,9.36
2023-01-19T12:27:16.815Z,9.13
2023-01-19T12:30:17.406Z,9.04
2023-01-19T12:33:37.576Z,8.88
2023-01-19T12:36:40.281Z,8.78
2023-01-19T12:39:31.150Z,8.80
2023-01-19T12:42:21.406Z,8.80
2023-01-19T12:45:17.860Z,8.73
2023-01-19T12:48:24.467Z,8.75
2023-01-19T12:51:25.268Z,8.94
2023-01-19T12:54:33.170Z,9.12
2023-01-19T12:57:28.336Z,9.35
2023-01-19T13:00:33.185Z,9.52
2023-01-19T13:03:58.755Z,9.52
2023-01-19T13:07:13.923Z,9.85
2023-01-19T13:11:02.146Z,10.03
2023-01-19T13:14:37.239Z,10.36
2023-01-19T13:17:34.659Z,10.44
2023-01-19T13:20:31.451Z,10.34
2023-01-19T13:23:26.854Z,10.26
2023-01-19T13:26:20.178Z,10.11
2023-01-19T13:29:17.074Z,10.08
2023-01-19T13:32:15.976Z,9.94
2023-01-19T13:35:08.205Z,9.98
2023-01-19T13:38:00.180Z,9.80
2023-01-19T13:40:50.014Z,9.55
2023-01-19T13:43:41.170Z,9.15
2023-01-19T13:46:33.381Z,8.79
2023-01-19T13:49:29.812Z,8.48
2023-01-19T13:52:23.661Z,8.12
2023-01-19T13:55:17.284Z,8.00
2023-01-19T13:58:20.807Z,7.81
2023-01-19T14:01:23.847Z,7.58
2023-01-19T14:04:27.780Z,7.52
2023-01-19T14:07:26.492Z,7.43
2023-01-19T14:10:17.834Z,7.20
2023-01-19T14:13:15.371Z,7.29
2023-01-19T14:16:09.261Z,7.25
2023-01-19T14:19:05.035Z,7.18
2023-01-19T14:22:02.953Z,7.09
2023-01-19T14:24:52.277Z,7.09
2023-01-19T14:27:41.587Z,7.05
2023-01-19T14:30:32.700Z,7.09
2023-01-19T14:33:41.993Z,7.04
2023-01-19T14:36:39.295Z,7.00
2023-01-19T14:39:34.010Z,6.90
2023-01-19T14:42:28.331Z,6.84
2023-01-19T14:45:20.503Z,6.89
2023-01-19T14:48:19.422Z,6.95
2023-01-19T14:51:08.955Z,6.85
2023-01-19T14:54:02.115Z,6.88
2023-01-19T14:56:54.762Z,6.82
2023-01-19T14:59:48.465Z,6.85
2023-01-19T15:02:37.831Z,6.79
2023-01-19T15:05:27.208Z,6.84
2023-01-19T15:08:20.485Z,6.82
2023-01-19T15:11:23.240Z,6.87
2023-01-19T15:14:15.489Z,6.87
2023-01-19T15:17:05.192Z,6.86
2023-01-19T15:19:55.300Z,6.82
2023-01-19T15:22:44.991Z,6.81
2023-01-19T15:25:34.394Z,6.82
2023-01-19T15:28:25.021Z,6.72
2023-01-19T15:31:19.156Z,6.75
2023-01-19T15:34:13.548Z,6.68
2023-01-19T15:37:02.835Z,6.71
2023-01-19T15:39:52.118Z,6.67
2023-01-19T15:42:41.522Z,6.59
2023-01-19T15:45:37.306Z,6.58
2023-01-19T15:48:26.685Z,6.55
2023-01-19T15:51:18.006Z,6.48
2023-01-19T15:54:07.413Z,6.44
2023-01-19T15:56:56.745Z,6.42
2023-01-19T15:59:46.003Z,6.38
2023-01-19T16:02:37.947Z,6.26
2023-01-19T16:05:41.370Z,6.38
2023-01-19T16:08:31.451Z,6.37
2023-01-19T16:11:20.654Z,6.33
2023-01-19T16:14:09.955Z,6.26
2023-01-19T16:17:00.061Z,6.24
2023-01-19T16:19:50.848Z,6.10
2023-01-19T16:22:40.499Z,6.10
2023-01-19T16:25:31.123Z,6.05
2023-01-19T16:28:20.395Z,6.02
2023-01-19T16:31:09.655Z,5.99
2023-01-19T16:33:58.808Z,5.93
2023-01-19T16:36:50.069Z,5.91
2023-01-19T16:39:39.698Z,5.83
2023-01-19T16:42:28.967Z,5.82
2023-01-19T16:45:18.314Z,5.78
2023-01-19T16:48:08.022Z,5.68
2023-01-19T16:51:04.703Z,5.65
2023-01-19T16:53:55.647Z,5.63
2023-01-19T16:56:44.993Z,5.58
2023-01-19T16:59:34.251Z,5.55
2023-01-19T17:02:23.549Z,5.49
2023-01-19T17:05:13.132Z,5.48
2023-01-19T17:08:02.516Z,5.40
2023-01-19T17:10:53.180Z,5.44
2023-01-19T17:13:42.463Z,5.41
2023-01-19T17:16:33.962Z,5.29
2023-01-19T17:19:23.346Z,5.26
2023-01-19T17:22:13.738Z,5.26
2023-01-19T17:25:02.969Z,5.14
2023-01-19T17:27:53.655Z,5.16
2023-01-19T17:30:43.242Z,5.11
2023-01-19T17:33:32.579Z,5.02
2023-01-19T17:36:25.378Z,5.02
2023-01-19T17:39:18.628Z,4.97
2023-01-19T17:42:08.022Z,4.95
2023-01-19T17:44:58.604Z,4.97
2023-01-19T17:47:50.599Z,4.93
2023-01-19T17:50:40.168Z,4.90
2023-01-19T17:53:29.845Z,4.78
2023-01-19T17:56:22.033Z,4.74
2023-01-19T17:59:11.311Z,4.79
2023-01-19T18:02:01.912Z,4.71
2023-01-19T18:04:53.009Z,4.71
2023-01-19T18:07:42.310Z,4.66
2023-01-19T18:10:31.487Z,4.60
2023-01-19T18:13:20.781Z,4.63
2023-01-19T18:16:13.875Z,4.60
2023-01-19T18:19:04.459Z,4.64
2023-01-19T18:21:53.647Z,4.66
2023-01-19T18:24:44.399Z,4.61
2023-01-19T18:27:33.689Z,4.63
2023-01-19T18:30:24.015Z,4.60
2023-01-19T18:33:13.269Z,4.51
2023-01-19T18:36:04.541Z,4.38
2023-01-19T18:38:53.769Z,4.44
2023-01-19T18:41:43.010Z,4.43
2023-01-19T18:44:32.279Z,4.34
2023-01-19T18:47:21.590Z,4.35
2023-01-19T18:50:14.232Z,4.28
2023-01-19T18:53:05.081Z,4.29
2023-01-19T18:55:57.977Z,4.27
2023-01-19T18:58:47.570Z,4.26
2023-01-19T19:01:37.097Z,4.26
2023-01-19T19:04:26.410Z,4.25
2023-01-19T19:07:15.734Z,4.16
2023-01-19T19:10:07.699Z,4.09
2023-01-19T19:12:56.952Z,4.12
2023-01-19T19:15:46.247Z,4.15
2023-01-19T19:18:36.453Z,4.19
2023-01-19T19:21:26.477Z,4.18
2023-01-19T19:24:15.720Z,4.17
2023-01-19T19:27:06.464Z,4.16
2023-01-19T19:29:55.726Z,4.17
2023-01-19T19:32:44.937Z,4.13
2023-01-19T19:35:34.259Z,4.15
2023-01-19T19:38:23.556Z,4.05
2023-01-19T19:41:15.915Z,4.01
2023-01-19T19:44:06.905Z,4.07
2023-01-19T19:46:56.175Z,4.02
2023-01-19T19:49:45.451Z,3.96
2023-01-19T19:52:40.482Z,3.89
2023-01-19T19:55:29.829Z,4.00
2023-01-19T19:58:19.180Z,4.02
2023-01-19T20:01:15.076Z,3.91
2023-01-19T20:04:10.812Z,3.89
2023-01-19T20:07:00.320Z,3.92
2023-01-19T20:09:51.186Z,3.86
2023-01-19T20:12:40.416Z,3.86
2023-01-19T20:15:29.705Z,3.80
2023-01-19T20:18:20.325Z,3.87
2023-01-19T20:21:14.709Z,3.86
2023-01-19T20:24:06.412Z,3.85
2023-01-19T20:26:56.803Z,3.85
2023-01-19T20:29:51.471Z,3.87
2023-01-19T20:32:41.270Z,3.85
2023-01-19T20:35:32.096Z,3.75
2023-01-19T20:38:21.317Z,3.73
2023-01-19T20:41:13.044Z,3.69
2023-01-19T20:44:02.304Z,3.69
2023-01-19T20:46:52.205Z,3.64
2023-01-19T20:49:42.110Z,3.65
2023-01-19T20:52:32.822Z,3.56
2023-01-19T20:55:22.005Z,3.54
2023-01-19T20:58:11.239Z,3.58
2023-01-19T21:01:00.733Z,3.57
2023-01-19T21:03:50.853Z,3.49
2023-01-19T21:06:40.399Z,3.51
2023-01-19T21:09:31.119Z,3.55
2023-01-19T21:12:21.536Z,3.56
2023-01-19T21:15:12.256Z,3.53
2023-01-19T21:18:02.003Z,3.50
2023-01-19T21:20:51.283Z,3.52
2023-01-19T21:23:40.575Z,3.50
2023-01-19T21:26:33.596Z,3.42
2023-01-19T21:29:22.731Z,3.52
2023-01-19T21:32:12.007Z,3.45
2023-01-19T21:35:01.205Z,3.50
2023-01-19T21:37:50.461Z,3.50
2023-01-19T21:40:39.721Z,3.46
2023-01-19T21:43:30.476Z,3.45
2023-01-19T21:46:22.158Z,3.44
2023-01-19T21:49:21.360Z,3.51
2023-01-19T21:52:10.562Z,3.50
2023-01-19T21:54:59.818Z,3.46
2023-01-19T21:57:49.119Z,3.48
2023-01-19T22:00:39.770Z,3.55
2023-01-19T22:03:29.823Z,3.49
2023-01-19T22:06:19.146Z,3.42
2023-01-19T22:09:23.449Z,3.46
2023-01-19T22:12:12.722Z,3.40
2023-01-19T22:15:01.993Z,3.35
2023-01-19T22:17:53.544Z,3.39
2023-01-19T22:20:42.761Z,3.42
2023-01-19T22:23:31.975Z,3.40
2023-01-19T22:26:21.834Z,3.44
2023-01-19T22:29:11.971Z,3.41
2023-01-19T22:32:01.219Z,3.40
2023-01-19T22:34:51.883Z,3.38
2023-01-19T22:37:41.327Z,3.33
2023-01-19T22:40:30.597Z,3.25
2023-01-19T22:43:19.861Z,3.30
2023-01-19T22:46:09.210Z,3.30
2023-01-19T22:48:58.889Z,3.28
2023-01-19T22:51:49.772Z,3.19
2023-01-19T22:54:39.037Z,3.24
2023-01-19T22:57:28.365Z,3.20
2023-01-19T23:00:19.114Z,3.19
2023-01-19T23:03:08.360Z,3.15
2023-01-19T23:05:57.977Z,3.11
2023-01-19T23:08:48.932Z,3.09
2023-01-19T23:11:41.383Z,2.98
2023-01-19T23:14:30.626Z,2.92
2023-01-19T23:17:19.838Z,3.03
2023-01-19T23:20:11.344Z,3.04
2023-01-19T23:23:00.570Z,3.02
2023-01-19T23:25:51.294Z,3.02
2023-01-19T23:28:40.929Z,3.02
2023-01-19T23:31:32.880Z,3.00
2023-01-19T23:34:22.204Z,3.09
2023-01-19T23:37:11.466Z,3.11
2023-01-19T23:40:00.751Z,3.08
2023-01-19T23:42:51.463Z,3.11
2023-01-19T23:45:40.811Z,3.09
2023-01-19T23:48:30.072Z,3.00
2023-01-19T23:51:23.001Z,3.08
2023-01-19T23:54:13.034Z,3.08
2023-01-19T23:57:02.675Z,3.08
2023-01-19T23:59:53.371Z,2.96
